Island Lake, Canada
Current Conditions -  °F | °C
As of 9:00 PM on Monday 26 Jan 2015 (Local Time) from CYIV Reporting Station
Light Snow Light Snow  
Wind Chill:   Ceiling: 700
Heat Index: 14°   Visibility: 15mi
Dew Point: 10°   Wind: 6mph
Humidity: 86%   Direction: 210°SSW
Pressure: 29.86"   Gusts: NA
Location:  53.85°N, 94.65°W
Report Text: CYIV 270300Z 21005KT 15SM -SN BKN007 OVC011 M10/M12 A2986 RMK SC5SC3 SLP134
Loading
Personal Weather Stations






























Interactive Weather Map New forecast layout! Learn more

10-Day Weather Forecast

Advertisements
Track Severe Weather on mobile